createdAt,value
2022-11-13T00:01:13.468Z,29.57
2022-11-13T00:04:01.196Z,25.40
2022-11-13T00:06:47.540Z,24.17
2022-11-13T00:09:33.855Z,27.00
2022-11-13T00:12:20.246Z,24.97
2022-11-13T00:15:07.643Z,23.40
2022-11-13T00:17:54.871Z,26.07
2022-11-13T00:20:42.738Z,21.93
2022-11-13T00:23:29.264Z,23.87
2022-11-13T00:26:17.441Z,27.57
2022-11-13T00:29:04.835Z,22.23
2022-11-13T00:31:51.061Z,24.90
2022-11-13T00:34:53.061Z,23.67
2022-11-13T00:37:41.019Z,21.60
2022-11-13T00:40:27.336Z,24.63
2022-11-13T00:43:13.570Z,21.37
2022-11-13T00:46:00.140Z,25.73
2022-11-13T00:48:46.378Z,23.90
2022-11-13T00:51:33.368Z,21.30
2022-11-13T00:54:21.471Z,24.17
2022-11-13T00:57:07.919Z,23.97
2022-11-13T00:59:54.575Z,24.37
2022-11-13T01:02:41.154Z,26.17
2022-11-13T01:05:27.857Z,20.53
2022-11-13T01:08:15.783Z,24.57
2022-11-13T01:11:10.019Z,22.93
2022-11-13T01:13:56.547Z,21.70
2022-11-13T01:16:42.857Z,24.37
2022-11-13T01:19:29.331Z,21.00
2022-11-13T01:22:15.980Z,19.63
2022-11-13T01:25:02.467Z,21.43
2022-11-13T01:27:49.783Z,20.00
2022-11-13T01:30:36.263Z,18.77
2022-11-13T01:33:22.781Z,22.60
2022-11-13T01:36:12.066Z,17.70
2022-11-13T01:38:58.974Z,19.70
2022-11-13T01:41:45.379Z,25.37
2022-11-13T01:47:25.343Z,17.23
2022-11-13T01:50:15.688Z,19.13
2022-11-13T01:53:02.287Z,19.50
2022-11-13T01:55:49.183Z,19.90
2022-11-13T01:58:36.279Z,20.10
2022-11-13T02:01:22.776Z,21.73
2022-11-13T02:04:10.528Z,24.60
2022-11-13T02:06:59.432Z,19.57
2022-11-13T02:09:49.234Z,24.53
2022-11-13T02:12:40.229Z,40.33
2022-11-13T02:15:29.727Z,29.63
2022-11-13T02:18:17.967Z,30.23
2022-11-13T02:21:14.344Z,27.80
2022-11-13T02:24:14.599Z,28.00
2022-11-13T02:27:05.521Z,25.47
2022-11-13T02:29:51.964Z,33.20
2022-11-13T02:32:43.959Z,31.23
2022-11-13T02:35:32.957Z,25.57
2022-11-13T02:38:19.523Z,27.07
2022-11-13T02:41:07.176Z,31.67
2022-11-13T02:43:53.628Z,46.03
2022-11-13T02:46:39.999Z,59.77
2022-11-13T02:49:26.454Z,29.33
2022-11-13T02:52:12.853Z,37.87
2022-11-13T02:54:59.048Z,39.17
2022-11-13T02:57:46.542Z,35.33
2022-11-13T03:00:33.184Z,30.27
2022-11-13T03:03:41.049Z,29.23
2022-11-13T03:06:25.514Z,35.20
2022-11-13T03:09:11.717Z,37.87
2022-11-13T03:11:58.285Z,31.27
2022-11-13T03:14:45.969Z,25.37
2022-11-13T03:17:32.641Z,30.70
2022-11-13T03:20:18.990Z,26.97
2022-11-13T03:23:05.116Z,28.57
2022-11-13T03:25:51.366Z,36.83
2022-11-13T03:28:38.674Z,20.87
2022-11-13T03:31:26.444Z,25.87
2022-11-13T03:34:12.998Z,20.17
2022-11-13T03:36:59.403Z,22.23
2022-11-13T03:39:45.731Z,38.03
2022-11-13T03:42:32.136Z,28.93
2022-11-13T03:45:18.878Z,26.30
2022-11-13T03:48:06.978Z,22.57
2022-11-13T03:50:55.679Z,19.97
2022-11-13T03:53:42.181Z,22.40
2022-11-13T03:56:29.323Z,35.80
2022-11-13T03:59:15.526Z,23.03
2022-11-13T04:02:02.056Z,50.03
2022-11-13T04:04:49.638Z,18.60
2022-11-13T04:07:36.242Z,22.27
2022-11-13T04:10:22.582Z,38.20
2022-11-13T04:13:09.415Z,37.00
2022-11-13T04:15:55.963Z,24.67
2022-11-13T04:18:53.829Z,20.07
2022-11-13T04:21:41.546Z,25.97
2022-11-13T04:24:27.957Z,24.20
2022-11-13T04:27:14.333Z,17.13
2022-11-13T04:30:00.781Z,15.23
2022-11-13T04:32:47.215Z,27.10
2022-11-13T04:35:33.955Z,16.53
2022-11-13T04:38:21.804Z,21.23
2022-11-13T04:41:26.280Z,20.60
2022-11-13T04:44:12.921Z,20.83
2022-11-13T04:46:59.458Z,33.87
2022-11-13T04:49:45.631Z,20.17
2022-11-13T04:52:32.074Z,26.30
2022-11-13T04:55:20.149Z,18.27
2022-11-13T04:58:06.343Z,29.03
2022-11-13T05:00:52.580Z,18.33
2022-11-13T05:03:39.400Z,29.97
2022-11-13T05:06:25.547Z,19.20
2022-11-13T05:09:12.700Z,16.97
2022-11-13T05:12:00.347Z,19.03
2022-11-13T05:14:46.904Z,15.43
2022-11-13T05:17:33.081Z,19.40
2022-11-13T05:20:19.696Z,19.03
2022-11-13T05:23:05.823Z,19.90
2022-11-13T05:25:52.476Z,17.13
2022-11-13T05:28:40.586Z,23.47
2022-11-13T05:31:27.521Z,18.17
2022-11-13T05:34:13.775Z,20.27
2022-11-13T05:37:00.228Z,27.27
2022-11-13T05:39:46.331Z,19.60
2022-11-13T05:42:32.579Z,20.40
2022-11-13T05:45:20.345Z,40.30
2022-11-13T05:48:07.204Z,46.80
2022-11-13T05:50:53.501Z,20.77
2022-11-13T05:53:40.484Z,25.37
2022-11-13T05:56:27.863Z,22.00
2022-11-13T05:59:14.292Z,28.47
2022-11-13T06:02:02.507Z,50.87
2022-11-13T06:04:50.661Z,34.13
2022-11-13T06:07:38.200Z,32.03
2022-11-13T06:10:24.583Z,16.63
2022-11-13T06:13:10.947Z,20.60
2022-11-13T06:16:02.028Z,18.10
2022-11-13T06:18:50.615Z,16.00
2022-11-13T06:21:39.825Z,18.10
2022-11-13T06:24:26.125Z,29.70
2022-11-13T06:27:12.271Z,18.20
2022-11-13T06:29:58.475Z,17.37
2022-11-13T06:32:45.121Z,17.73
2022-11-13T06:35:33.262Z,25.47
2022-11-13T06:38:19.756Z,16.37
2022-11-13T06:41:07.392Z,38.00
2022-11-13T06:43:57.433Z,18.33
2022-11-13T06:46:46.544Z,22.90
2022-11-13T06:49:32.928Z,26.13
2022-11-13T06:52:20.783Z,22.70
2022-11-13T06:55:07.811Z,24.60
2022-11-13T06:57:55.312Z,19.57
2022-11-13T07:00:42.318Z,20.90
2022-11-13T07:03:29.259Z,17.57
2022-11-13T07:06:17.827Z,25.43
2022-11-13T07:09:05.511Z,32.73
2022-11-13T07:11:51.887Z,26.60
2022-11-13T07:14:38.205Z,28.70
2022-11-13T07:17:24.534Z,21.00
2022-11-13T07:20:11.796Z,21.83
2022-11-13T07:22:58.984Z,24.17
2022-11-13T07:25:46.516Z,36.77
2022-11-13T07:28:33.262Z,52.27
2022-11-13T07:31:20.750Z,28.60
2022-11-13T07:34:07.464Z,22.30
2022-11-13T07:36:54.087Z,16.00
2022-11-13T07:39:40.603Z,34.80
2022-11-13T07:42:28.452Z,13.87
2022-11-13T07:45:14.751Z,19.63
2022-11-13T07:48:01.673Z,29.27
2022-11-13T07:50:48.849Z,21.37
2022-11-13T07:53:35.880Z,40.93
2022-11-13T07:56:23.421Z,71.60
2022-11-13T07:59:11.236Z,84.80
2022-11-13T08:01:57.590Z,148.93
2022-11-13T08:04:44.067Z,59.07
2022-11-13T08:07:30.759Z,43.33
2022-11-13T08:10:17.838Z,28.43
2022-11-13T08:13:05.889Z,41.00
2022-11-13T08:15:53.567Z,44.93
2022-11-13T08:18:40.009Z,30.93
2022-11-13T08:21:26.405Z,41.07
2022-11-13T08:24:12.912Z,23.67
2022-11-13T08:26:59.175Z,54.00
2022-11-13T08:29:45.857Z,42.70
2022-11-13T08:32:33.896Z,30.73
2022-11-13T08:35:23.974Z,39.13
2022-11-13T08:38:13.188Z,40.93
2022-11-13T08:41:03.268Z,28.87
2022-11-13T08:43:53.662Z,26.70
2022-11-13T08:46:40.085Z,37.40
2022-11-13T08:49:27.857Z,27.67
2022-11-13T08:52:15.446Z,46.93
2022-11-13T08:55:01.704Z,40.00
2022-11-13T08:57:48.287Z,25.20
2022-11-13T09:00:34.491Z,23.90
2022-11-13T09:03:20.848Z,27.70
2022-11-13T09:06:10.113Z,30.53
2022-11-13T09:08:56.491Z,25.97
2022-11-13T09:11:42.697Z,36.27
2022-11-13T09:14:29.338Z,26.10
2022-11-13T09:17:15.503Z,24.27
2022-11-13T09:20:04.263Z,27.07
2022-11-13T09:22:59.582Z,26.10
2022-11-13T09:25:45.732Z,26.73
2022-11-13T09:28:32.307Z,23.23
2022-11-13T09:31:18.492Z,28.63
2022-11-13T09:34:04.723Z,39.87
2022-11-13T09:36:51.292Z,37.70
2022-11-13T09:39:39.044Z,29.30
2022-11-13T09:42:30.607Z,38.60
2022-11-13T09:45:17.496Z,35.90
2022-11-13T09:48:18.922Z,35.33
2022-11-13T09:51:11.750Z,23.40
2022-11-13T09:53:59.377Z,25.77
2022-11-13T09:56:52.348Z,34.50
2022-11-13T09:59:45.067Z,30.40
2022-11-13T10:02:44.158Z,32.47
2022-11-13T10:05:40.538Z,26.53
2022-11-13T10:08:30.794Z,40.33
2022-11-13T10:11:24.443Z,38.33
2022-11-13T10:14:20.283Z,28.10
2022-11-13T10:17:14.606Z,26.87
2022-11-13T10:20:04.083Z,35.53
2022-11-13T10:22:52.455Z,34.87
2022-11-13T10:25:41.332Z,33.47
2022-11-13T10:28:49.470Z,31.73
2022-11-13T10:31:45.186Z,38.50
2022-11-13T10:34:34.186Z,34.57
2022-11-13T10:37:35.797Z,34.40
2022-11-13T10:40:26.285Z,30.40
2022-11-13T10:43:16.278Z,34.30
2022-11-13T10:46:04.581Z,32.20
2022-11-13T10:48:52.565Z,35.37
2022-11-13T10:51:39.707Z,32.77
2022-11-13T10:54:28.237Z,35.23
2022-11-13T10:57:26.379Z,32.13
2022-11-13T11:00:28.151Z,33.80
2022-11-13T11:03:16.298Z,28.37
2022-11-13T11:06:05.728Z,34.37
2022-11-13T11:08:52.335Z,38.03
2022-11-13T11:11:56.070Z,36.37
2022-11-13T11:15:04.619Z,36.13
2022-11-13T11:17:53.856Z,31.87
2022-11-13T11:20:45.968Z,32.43
2022-11-13T11:23:41.639Z,32.57
2022-11-13T11:26:33.320Z,32.47
2022-11-13T11:29:27.751Z,33.93
2022-11-13T11:32:20.980Z,35.53
2022-11-13T11:35:14.466Z,35.77
2022-11-13T11:38:06.779Z,35.10
2022-11-13T11:41:02.936Z,41.43
2022-11-13T11:43:58.261Z,36.63
2022-11-13T11:46:46.863Z,38.40
2022-11-13T11:49:33.630Z,40.13
2022-11-13T11:52:33.934Z,38.30
2022-11-13T11:55:36.665Z,43.20
2022-11-13T11:58:40.073Z,41.10
2022-11-13T12:01:40.992Z,40.93
2022-11-13T12:04:43.535Z,40.27
2022-11-13T12:07:40.983Z,44.67
2022-11-13T12:10:37.364Z,45.27
2022-11-13T12:13:31.377Z,40.10
2022-11-13T12:16:30.904Z,42.07
2022-11-13T12:19:25.732Z,42.93
2022-11-13T12:22:24.899Z,42.97
2022-11-13T12:25:22.110Z,42.50
2022-11-13T12:28:17.037Z,42.27
2022-11-13T12:31:12.432Z,40.50
2022-11-13T12:34:08.167Z,50.97
2022-11-13T12:36:55.992Z,36.70
2022-11-13T12:39:49.914Z,41.20
2022-11-13T12:42:44.154Z,36.07
2022-11-13T12:45:45.385Z,36.30
2022-11-13T12:48:36.704Z,36.57
2022-11-13T12:51:22.941Z,36.60
2022-11-13T12:54:11.477Z,41.27
2022-11-13T12:57:17.174Z,35.47
2022-11-13T13:00:23.534Z,34.63
2022-11-13T13:03:22.676Z,40.53
2022-11-13T13:06:21.538Z,36.67
2022-11-13T13:09:23.324Z,35.57
2022-11-13T13:12:18.535Z,42.50
2022-11-13T13:15:28.688Z,34.73
2022-11-13T13:18:30.871Z,44.23
2022-11-13T13:21:20.335Z,36.80
2022-11-13T13:24:31.260Z,38.27
2022-11-13T13:27:26.347Z,38.67
2022-11-13T13:30:22.225Z,39.93
2022-11-13T13:33:20.586Z,39.03
2022-11-13T13:36:21.442Z,40.33
2022-11-13T13:39:20.110Z,41.30
2022-11-13T13:42:19.660Z,36.87
2022-11-13T13:45:25.763Z,37.37
2022-11-13T13:48:14.698Z,38.97
2022-11-13T13:51:02.934Z,41.33
2022-11-13T13:53:51.108Z,39.23
2022-11-13T13:56:42.122Z,39.03
2022-11-13T13:59:33.941Z,41.60
2022-11-13T14:02:23.080Z,37.03
2022-11-13T14:05:25.672Z,46.17
2022-11-13T14:08:18.123Z,40.87
2022-11-13T14:11:17.998Z,46.17
2022-11-13T14:14:16.834Z,40.93
2022-11-13T14:17:03.867Z,41.23
2022-11-13T14:19:51.455Z,42.07
2022-11-13T14:22:38.427Z,42.97
2022-11-13T14:25:29.187Z,39.17
2022-11-13T14:28:20.046Z,42.43
2022-11-13T14:31:08.857Z,39.07
2022-11-13T14:33:55.679Z,45.40
2022-11-13T14:36:41.886Z,43.80
2022-11-13T14:39:32.421Z,46.80
2022-11-13T14:42:21.140Z,45.30
2022-11-13T14:45:17.929Z,45.93
2022-11-13T14:48:22.145Z,45.27
2022-11-13T14:51:24.028Z,54.43
2022-11-13T14:54:46.802Z,86.30
2022-11-13T14:57:35.637Z,55.73
2022-11-13T15:00:29.851Z,52.90
2022-11-13T15:03:16.345Z,48.00
2022-11-13T15:06:03.128Z,55.50
2022-11-13T15:08:51.349Z,49.63
2022-11-13T15:11:40.165Z,49.57
2022-11-13T15:14:26.340Z,50.80
2022-11-13T15:17:19.292Z,46.27
2022-11-13T15:20:09.659Z,53.83
2022-11-13T15:22:57.961Z,51.57
2022-11-13T15:25:45.602Z,52.10
2022-11-13T15:28:31.936Z,51.50
2022-11-13T15:31:20.992Z,52.43
2022-11-13T15:34:11.703Z,54.90
2022-11-13T15:36:58.188Z,54.83
2022-11-13T15:39:44.353Z,61.47
2022-11-13T15:42:34.457Z,55.13
2022-11-13T15:45:20.967Z,51.17
2022-11-13T15:48:10.337Z,50.00
2022-11-13T15:50:58.018Z,51.47
2022-11-13T15:53:45.321Z,54.50
2022-11-13T15:56:32.247Z,51.53
2022-11-13T15:59:18.881Z,81.03
2022-11-13T16:02:06.047Z,65.10
2022-11-13T16:04:57.361Z,49.77
2022-11-13T16:07:45.247Z,56.10
2022-11-13T16:10:31.587Z,59.77
2022-11-13T16:13:17.948Z,56.23
2022-11-13T16:16:04.604Z,56.43
2022-11-13T16:18:55.863Z,62.93
2022-11-13T16:21:45.288Z,64.57
2022-11-13T16:24:33.124Z,60.03
2022-11-13T16:27:26.992Z,61.93
2022-11-13T16:30:17.914Z,64.93
2022-11-13T16:33:07.875Z,59.50
2022-11-13T16:35:54.915Z,64.60
2022-11-13T16:38:41.519Z,68.40
2022-11-13T16:41:29.009Z,63.60
2022-11-13T16:44:15.194Z,64.73
2022-11-13T16:47:02.692Z,71.53
2022-11-13T16:49:50.086Z,60.23
2022-11-13T16:52:36.579Z,61.90
2022-11-13T16:55:23.614Z,62.67
2022-11-13T16:58:15.015Z,63.27
2022-11-13T17:01:01.473Z,61.50
2022-11-13T17:03:47.832Z,66.07
2022-11-13T17:06:35.883Z,65.40
2022-11-13T17:09:22.242Z,59.30
2022-11-13T17:12:08.853Z,63.10
2022-11-13T17:14:56.450Z,58.13
2022-11-13T17:17:43.065Z,55.80
2022-11-13T17:20:29.317Z,60.17
2022-11-13T17:23:15.997Z,70.77
2022-11-13T17:26:02.243Z,78.95
2022-11-13T17:28:48.768Z,70.50
2022-11-13T17:31:36.349Z,78.63
2022-11-13T17:34:23.115Z,82.87
2022-11-13T17:37:09.239Z,72.70
2022-11-13T17:39:55.851Z,68.67
2022-11-13T17:42:42.375Z,72.37
2022-11-13T17:45:28.528Z,64.03
2022-11-13T17:48:16.143Z,63.43
2022-11-13T17:51:03.826Z,69.17
2022-11-13T17:53:50.097Z,74.63
2022-11-13T17:56:37.659Z,71.03
2022-11-13T17:59:23.822Z,71.67
2022-11-13T18:02:12.340Z,67.03
2022-11-13T18:05:01.270Z,76.37
2022-11-13T18:07:47.889Z,72.23
2022-11-13T18:10:34.981Z,73.20
2022-11-13T18:13:21.439Z,66.97
2022-11-13T18:16:09.490Z,63.53
2022-11-13T18:18:58.224Z,67.30
2022-11-13T18:21:45.862Z,74.53
2022-11-13T18:24:32.084Z,63.20
2022-11-13T18:27:18.300Z,58.23
2022-11-13T18:30:05.259Z,55.10
2022-11-13T18:32:51.411Z,49.70
2022-11-13T18:35:37.700Z,47.20
2022-11-13T18:38:25.472Z,49.43
2022-11-13T18:41:13.930Z,39.53
2022-11-13T18:44:00.047Z,44.00
2022-11-13T18:46:46.654Z,38.03
2022-11-13T18:49:32.932Z,45.57
2022-11-13T18:52:19.475Z,44.03
2022-11-13T18:55:09.524Z,36.20
2022-11-13T18:57:55.944Z,40.67
2022-11-13T19:00:42.321Z,39.53
2022-11-13T19:03:29.047Z,41.00
2022-11-13T19:06:16.810Z,44.30
2022-11-13T19:09:05.647Z,40.07
2022-11-13T19:11:55.395Z,46.93
2022-11-13T19:14:41.948Z,36.13
2022-11-13T19:17:28.176Z,37.23
2022-11-13T19:20:14.674Z,40.77
2022-11-13T19:23:05.102Z,37.63
2022-11-13T19:25:54.593Z,38.30
2022-11-13T19:28:42.336Z,37.80
2022-11-13T19:31:29.127Z,33.67
2022-11-13T19:34:15.721Z,39.10
2022-11-13T19:37:02.471Z,40.47
2022-11-13T19:39:48.904Z,34.37
2022-11-13T19:42:40.767Z,36.90
2022-11-13T19:45:30.126Z,37.40
2022-11-13T19:48:18.956Z,35.77
2022-11-13T19:51:06.232Z,37.47
2022-11-13T19:53:54.426Z,39.33
2022-11-13T19:56:40.832Z,37.27
2022-11-13T19:59:27.475Z,42.10
2022-11-13T20:02:15.258Z,40.27
2022-11-13T20:05:01.879Z,38.60
2022-11-13T20:07:48.306Z,38.83
2022-11-13T20:10:34.744Z,39.33
2022-11-13T20:13:21.048Z,39.30
2022-11-13T20:16:09.350Z,42.20
2022-11-13T20:18:59.198Z,48.00
2022-11-13T20:21:45.347Z,43.00
2022-11-13T20:24:31.751Z,43.63
2022-11-13T20:27:18.071Z,39.07
2022-11-13T20:30:05.381Z,40.03
2022-11-13T20:32:51.978Z,42.00
2022-11-13T20:35:39.660Z,44.03
2022-11-13T20:38:26.101Z,47.57
2022-11-13T20:41:12.685Z,41.73
2022-11-13T20:44:03.293Z,38.93
2022-11-13T20:46:49.882Z,44.10
2022-11-13T20:49:36.104Z,42.03
2022-11-13T20:52:23.836Z,42.73
2022-11-13T20:55:10.932Z,43.27
2022-11-13T20:57:57.878Z,46.03
2022-11-13T21:00:44.503Z,40.13
2022-11-13T21:03:30.847Z,44.20
2022-11-13T21:06:18.979Z,47.97
2022-11-13T21:09:06.991Z,55.47
2022-11-13T21:11:53.586Z,48.97
2022-11-13T21:14:39.695Z,47.23
2022-11-13T21:17:26.187Z,47.67
2022-11-13T21:20:13.439Z,48.97
2022-11-13T21:23:00.040Z,43.10
2022-11-13T21:25:47.732Z,44.73
2022-11-13T21:28:34.388Z,49.73
2022-11-13T21:31:21.736Z,48.90
2022-11-13T21:34:10.508Z,49.93
2022-11-13T21:36:56.978Z,42.00
2022-11-13T21:39:43.599Z,44.53
2022-11-13T21:42:31.180Z,42.53
2022-11-13T21:45:17.999Z,44.30
2022-11-13T21:48:04.644Z,44.40
2022-11-13T21:50:50.768Z,39.43
2022-11-13T21:53:37.323Z,43.70
2022-11-13T21:56:24.166Z,42.80
2022-11-13T21:59:12.049Z,38.43
2022-11-13T22:01:58.544Z,41.13
2022-11-13T22:04:44.969Z,37.63
2022-11-13T22:07:31.275Z,37.27
2022-11-13T22:10:17.428Z,36.10
2022-11-13T22:13:04.135Z,30.97
2022-11-13T22:15:51.659Z,34.67
2022-11-13T22:18:38.155Z,35.23
2022-11-13T22:21:25.842Z,33.70
2022-11-13T22:24:13.157Z,35.30
2022-11-13T22:26:59.547Z,30.47
2022-11-13T22:29:46.120Z,31.83
2022-11-13T22:32:33.847Z,34.33
2022-11-13T22:35:20.233Z,36.13
2022-11-13T22:38:06.909Z,31.97
2022-11-13T22:40:53.637Z,39.27
2022-11-13T22:43:41.498Z,35.17
2022-11-13T22:46:29.695Z,43.40
2022-11-13T22:49:17.417Z,38.87
2022-11-13T22:52:03.905Z,40.37
2022-11-13T22:54:50.338Z,63.90
2022-11-13T22:57:36.988Z,55.97
2022-11-13T23:00:23.512Z,43.30
2022-11-13T23:03:09.769Z,40.50
2022-11-13T23:05:57.311Z,43.43
2022-11-13T23:08:44.059Z,40.13
2022-11-13T23:11:32.784Z,36.17
2022-11-13T23:14:19.388Z,38.00
2022-11-13T23:17:05.800Z,42.17
2022-11-13T23:19:51.895Z,38.23
2022-11-13T23:22:39.474Z,38.73
2022-11-13T23:25:26.070Z,40.13
2022-11-13T23:28:12.332Z,38.40
2022-11-13T23:30:59.408Z,43.80
2022-11-13T23:33:46.733Z,47.27
2022-11-13T23:36:32.959Z,36.23
2022-11-13T23:39:20.550Z,41.70
2022-11-13T23:42:07.143Z,45.87
2022-11-13T23:44:53.615Z,41.93
2022-11-13T23:47:40.140Z,56.30
2022-11-13T23:50:26.555Z,49.50
2022-11-13T23:53:12.944Z,46.60
2022-11-13T23:56:00.513Z,41.00
2022-11-13T23:58:47.194Z,43.57
